Dellview, NC

5:18 AM EDT on March 28, 2017 (GMT -0400)
| | Change Station

Elev -9999 ft 0.00 °N, 0.00 °E | Updated 0 second ago

Rain
Rain
°F
Feels Like °F
N
Wind Variable Wind from North
Gusts mph

Today
High -- | Low -- °F
--% Chance of Precip.
Yesterday
High -- | Low -- °F
Precip. -- in
Pressure 29.92 in
Visibility 10.0 miles
Clouds Scattered Clouds 6500 ft
Scattered Clouds 8000 ft
Mostly Cloudy 12000 ft
Dew Point Not available.
Humidity Not available.
Rainfall --
Snow Depth Not available.
7:17 AM 7:44 PM
New Moon, 0% visible
METAR KEHO 280900Z AUTO 17004KT 10SM SCT065 SCT080 BKN120 14/14 A2992 RMK AO2 T01420142
Pressure 29.92 in
Visibility 10.0 miles
Clouds Scattered Clouds 6500 ft
Scattered Clouds 8000 ft
Mostly Cloudy 12000 ft
Dew Point Not available.
Humidity Not available.
Rainfall --
Snow Depth Not available.
7:17 AM 7:44 PM
New Moon, 0% visible
METAR KEHO 280900Z AUTO 17004KT 10SM SCT065 SCT080 BKN120 14/14 A2992 RMK AO2 T01420142

Get Severe Weather Alerts

Thanks for signing up!

Be on the lookout for a verification email in your inbox.

You'll start receiving the daily forecast at 8 AM.

×

10-Day Weather Forecast

Almanac

Astronomy

Mar. 28, 2017 Rise Set
Actual Time
Civil Twilight
Nautical Twilight
Astronomical Twilight
Moon
Length of Visible Light
Length of Day
Tomorrow will be .
, % of the Moon is Illuminated

Today's Extremes

State Highs State Lows

Community

WunderPhotos

Upload Photos

1,962,540 photos uploaded!

WunderBlog® & News

Nearby

Air Quality

  Air Quality AQ Index Pollutant
Not available.

Snow Depth

Station Depth Elevation

Earthquake Activity

City Distance Mag. Time & Date
Minimum magnitude displayed is 2.5.

Earthquake Activity

City Distance Mag. Time & Date
Minimum magnitude displayed is 2.5.

Coastal Water Temperatures

Place Temperature

Stations

Nearby Weather Stations

Station Location Temp. Windchill Dew Point Humidity Wind Precip. Elev Updated Type
                   

Watches & Warnings

There are currently no watches in effect.